Time;durP1;ratioP1;P1;durP2;ratioP2;P2;SDS_P1;SDS_P2;PMS_P1;PMS_P2;Temp;Humidity;BMP_temperature;BMP_pressure;BME280_temperature;BME280_humidity;BME280_pressure;Samples;Min_cycle;Max_cycle;Signal;HPM_P1;HPM_P2
2021/03/25 00:00:13;;;;;;;;;25.25;16.75;;;;;;;;3725098;37;20490;-62
2021/03/25 00:02:39;;;;;;;;;16.75;14.25;;;;;;;;3725172;37;18140;-64
2021/03/25 00:05:07;;;;;;;;;14.25;11.00;;;;;;;;3725073;37;20491;-64
2021/03/25 00:07:33;;;;;;;;;16.50;14.00;;;;;;;;3725930;38;18138;-63
2021/03/25 00:09:59;;;;;;;;;18.00;14.75;;;;;;;;3725366;38;20511;-63
2021/03/25 00:12:25;;;;;;;;;17.00;14.25;;;;;;;;3725924;38;18134;-64
2021/03/25 00:14:51;;;;;;;;;14.00;12.00;;;;;;;;3725735;38;20516;-64
2021/03/25 00:17:16;;;;;;;;;12.50;9.25;;;;;;;;3725523;38;20529;-65
2021/03/25 00:19:43;;;;;;;;;16.50;14.25;;;;;;;;3725438;38;18126;-65
2021/03/25 00:22:11;;;;;;;;;13.50;11.75;;;;;;;;3725266;38;18139;-66
2021/03/25 00:24:37;;;;;;;;;15.00;12.00;;;;;;;;3724990;37;20464;-64
2021/03/25 00:27:04;;;;;;;;;16.25;13.00;;;;;;;;3725212;38;20486;-64
2021/03/25 00:29:30;;;;;;;;;15.25;12.50;;;;;;;;3725305;38;20473;-65
2021/03/25 00:31:56;;;;;;;;;15.00;14.00;;;;;;;;3724997;38;20491;-66
2021/03/25 00:34:22;;;;;;;;;16.75;15.25;;;;;;;;3725065;37;18098;-66
2021/03/25 00:36:49;;;;;;;;;13.75;13.25;;;;;;;;3725220;38;20459;-66
2021/03/25 00:39:15;;;;;;;;;12.00;11.75;;;;;;;;3724946;37;18088;-65
2021/03/25 00:41:42;;;;;;;;;12.00;9.50;;;;;;;;3725073;37;20442;-66
2021/03/25 00:44:08;;;;;;;;;13.75;10.50;;;;;;;;3725244;38;20426;-65
2021/03/25 00:46:35;;;;;;;;;14.25;13.00;;;;;;;;3725342;38;20442;-66
2021/03/25 00:49:01;;;;;;;;;14.25;12.50;;;;;;;;3725656;38;20466;-65
2021/03/25 00:51:28;;;;;;;;;15.75;15.00;;;;;;;;3732639;38;20423;-64
2021/03/25 00:53:53;;;;;;;;;12.75;12.00;;;;;;;;3728398;38;20447;-64
2021/03/25 00:56:20;;;;;;;;;12.50;11.25;;;;;;;;3725979;38;20437;-64
2021/03/25 00:58:51;;;;;;;;;9.50;8.50;;;;;;;;3724841;38;18064;-66
2021/03/25 01:01:17;;;;;;;;;16.25;12.25;;;;;;;;3725155;37;20387;-64
2021/03/25 01:03:43;;;;;;;;;13.00;12.25;;;;;;;;3725039;37;20403;-65
2021/03/25 01:06:10;;;;;;;;;8.75;8.00;;;;;;;;3725328;37;18062;-69
2021/03/25 01:08:38;;;;;;;;;14.00;11.50;;;;;;;;3725799;37;20459;-66
2021/03/25 01:11:09;;;;;;;;;14.50;11.75;;;;;;;;3724899;38;20394;-65
2021/03/25 01:13:58;;;;;;;;;15.75;11.50;;;;;;;;3725766;37;20474;-65
2021/03/25 01:16:26;;;;;;;;;12.25;8.75;;;;;;;;3725685;37;20390;-64
2021/03/25 01:18:52;;;;;;;;;8.75;6.00;;;;;;;;3725129;37;20390;-66
2021/03/25 01:21:18;;;;;;;;;12.25;12.25;;;;;;;;3725117;37;20375;-67
2021/03/25 01:23:50;;;;;;;;;13.75;13.25;;;;;;;;3724811;38;18047;-66
2021/03/25 01:26:16;;;;;;;;;13.50;12.75;;;;;;;;3725347;37;20406;-67
2021/03/25 01:28:43;;;;;;;;;14.75;14.00;;;;;;;;3725088;37;20386;-65
2021/03/25 01:31:09;;;;;;;;;15.00;12.00;;;;;;;;3725347;37;20410;-64
2021/03/25 01:33:35;;;;;;;;;14.00;12.00;;;;;;;;3725266;38;20404;-63
2021/03/25 01:36:01;;;;;;;;;13.50;11.75;;;;;;;;3725272;37;20415;-65
2021/03/25 01:38:26;;;;;;;;;14.50;10.00;;;;;;;;3725317;37;18027;-63
2021/03/25 01:40:58;;;;;;;;;16.75;12.75;;;;;;;;3725364;38;18033;-64
2021/03/25 01:43:36;;;;;;;;;11.00;9.75;;;;;;;;3725073;38;18042;-65
2021/03/25 01:46:22;;;;;;;;;11.00;11.00;;;;;;;;3724973;37;20384;-63
2021/03/25 01:48:50;;;;;;;;;12.50;10.75;;;;;;;;3725418;37;20389;-65
2021/03/25 01:51:26;;;;;;;;;14.00;13.00;;;;;;;;3725209;38;20370;-65
2021/03/25 01:54:10;;;;;;;;;9.75;8.75;;;;;;;;3725190;37;20392;-65
2021/03/25 01:56:55;;;;;;;;;13.00;12.50;;;;;;;;3725484;37;20370;-64
2021/03/25 01:59:41;;;;;;;;;12.50;8.50;;;;;;;;3725431;37;20382;-64
2021/03/25 02:02:25;;;;;;;;;9.75;9.50;;;;;;;;3725255;38;20376;-65
2021/03/25 02:05:04;;;;;;;;;9.75;8.50;;;;;;;;3725558;37;20394;-65
2021/03/25 02:07:49;;;;;;;;;13.25;11.75;;;;;;;;3727457;38;20348;-66
2021/03/25 02:10:39;;;;;;;;;12.75;10.75;;;;;;;;3728322;37;20361;-65
2021/03/25 02:13:31;;;;;;;;;15.00;11.25;;;;;;;;3725393;37;20377;-65
2021/03/25 02:16:06;;;;;;;;;14.00;13.00;;;;;;;;3725377;38;20360;-65
2021/03/25 02:18:53;;;;;;;;;14.25;12.00;;;;;;;;3724858;38;20310;-64
2021/03/25 02:21:37;;;;;;;;;15.75;10.00;;;;;;;;3725328;37;20311;-63
2021/03/25 02:24:13;;;;;;;;;15.75;13.00;;;;;;;;3724887;38;20337;-64
2021/03/25 02:26:51;;;;;;;;;11.75;11.00;;;;;;;;3725067;37;20304;-64
2021/03/25 02:29:37;;;;;;;;;12.50;11.75;;;;;;;;3725273;38;20316;-65
2021/03/25 02:32:06;;;;;;;;;15.75;12.50;;;;;;;;3725321;37;20300;-64
2021/03/25 02:34:33;;;;;;;;;10.50;8.50;;;;;;;;3725168;37;20314;-65
2021/03/25 02:37:03;;;;;;;;;14.25;10.00;;;;;;;;3725304;37;20301;-64
2021/03/25 02:39:43;;;;;;;;;13.00;12.00;;;;;;;;3725609;38;20299;-65
2021/03/25 02:42:14;;;;;;;;;9.00;8.00;;;;;;;;3732421;37;20292;-64
2021/03/25 02:44:44;;;;;;;;;10.25;9.00;;;;;;;;3729885;38;20266;-65
2021/03/25 02:47:10;;;;;;;;;18.00;12.75;;;;;;;;3725410;38;20301;-62
2021/03/25 02:49:39;;;;;;;;;12.00;12.00;;;;;;;;3725746;37;20264;-60
2021/03/25 02:52:36;;;;;;;;;11.25;8.75;;;;;;;;3727820;37;17942;-64
2021/03/25 02:55:05;;;;;;;;;15.75;10.00;;;;;;;;3725279;37;20260;-62
2021/03/25 02:57:34;;;;;;;;;11.00;10.25;;;;;;;;3724936;38;20398;-63
2021/03/25 03:00:04;;;;;;;;;9.50;9.00;;;;;;;;3725333;38;20260;-64
2021/03/25 03:02:38;;;;;;;;;14.75;11.25;;;;;;;;3725801;37;20235;-63
2021/03/25 03:05:11;;;;;;;;;15.75;14.25;;;;;;;;3726966;38;20241;-63
2021/03/25 03:07:47;;;;;;;;;12.75;11.75;;;;;;;;3725332;37;20280;-63
2021/03/25 03:10:19;;;;;;;;;13.50;12.00;;;;;;;;3725555;38;20261;-64
2021/03/25 03:12:47;;;;;;;;;14.50;9.50;;;;;;;;3727658;37;20236;-64
2021/03/25 03:15:39;;;;;;;;;12.75;9.50;;;;;;;;3726847;37;20233;-65
2021/03/25 03:18:12;;;;;;;;;13.00;9.75;;;;;;;;3725332;38;20219;-64
2021/03/25 03:20:42;;;;;;;;;15.00;11.25;;;;;;;;3725381;38;20233;-62
2021/03/25 03:23:09;;;;;;;;;11.75;11.00;;;;;;;;3725253;38;20249;-62
2021/03/25 03:25:38;;;;;;;;;13.50;10.50;;;;;;;;3724868;37;20231;-63
2021/03/25 03:28:16;;;;;;;;;13.25;11.25;;;;;;;;3725261;37;20234;-63
2021/03/25 03:30:46;;;;;;;;;8.25;7.00;;;;;;;;3725458;37;20202;-63
2021/03/25 03:33:18;;;;;;;;;12.50;8.25;;;;;;;;3725102;37;20184;-63
2021/03/25 03:35:56;;;;;;;;;12.00;11.50;;;;;;;;3725173;38;20232;-62
2021/03/25 03:38:28;;;;;;;;;14.25;11.00;;;;;;;;3725286;38;20212;-64
2021/03/25 03:40:55;;;;;;;;;14.00;13.50;;;;;;;;3725325;37;20206;-63
2021/03/25 03:43:21;;;;;;;;;13.00;8.75;;;;;;;;3725391;37;20185;-63
2021/03/25 03:45:57;;;;;;;;;14.25;12.00;;;;;;;;3725186;37;20207;-62
2021/03/25 03:48:27;;;;;;;;;14.00;11.75;;;;;;;;3725006;37;20429;-63
2021/03/25 03:50:54;;;;;;;;;16.75;14.00;;;;;;;;3725417;37;20209;-63
2021/03/25 03:53:20;;;;;;;;;12.00;11.50;;;;;;;;3725415;37;20215;-64
2021/03/25 03:55:46;;;;;;;;;13.00;11.25;;;;;;;;3725921;38;20208;-63
2021/03/25 03:58:23;;;;;;;;;16.75;14.25;;;;;;;;3726042;37;20212;-62
2021/03/25 04:01:02;;;;;;;;;11.25;10.00;;;;;;;;3725591;38;20197;-64
2021/03/25 04:03:39;;;;;;;;;21.50;16.00;;;;;;;;3725591;37;20178;-64
2021/03/25 04:06:30;;;;;;;;;16.50;12.00;;;;;;;;3725375;37;20206;-64
2021/03/25 04:09:15;;;;;;;;;15.25;12.00;;;;;;;;3725436;38;20300;-62
2021/03/25 04:11:48;;;;;;;;;16.50;15.00;;;;;;;;3725604;37;20150;-63
2021/03/25 04:14:16;;;;;;;;;15.50;13.00;;;;;;;;3725463;37;20182;-62
2021/03/25 04:16:46;;;;;;;;;18.25;14.00;;;;;;;;3725636;38;20175;-61
2021/03/25 04:19:17;;;;;;;;;19.00;17.25;;;;;;;;3725295;38;20194;-64
2021/03/25 04:21:47;;;;;;;;;19.00;17.75;;;;;;;;3725443;37;20163;-64
2021/03/25 04:24:21;;;;;;;;;19.25;17.50;;;;;;;;3726540;37;20179;-62
2021/03/25 04:26:51;;;;;;;;;14.75;12.25;;;;;;;;3726085;37;20219;-64
2021/03/25 04:29:24;;;;;;;;;16.75;15.50;;;;;;;;3727351;38;20162;-62
2021/03/25 04:31:51;;;;;;;;;17.25;13.75;;;;;;;;3728669;38;20169;-62
2021/03/25 04:34:17;;;;;;;;;16.75;13.00;;;;;;;;3729465;37;20161;-62
2021/03/25 04:36:44;;;;;;;;;15.00;12.00;;;;;;;;3725371;37;20172;-64
2021/03/25 04:39:11;;;;;;;;;17.75;15.50;;;;;;;;3725724;37;17783;-63
2021/03/25 04:41:39;;;;;;;;;14.50;13.50;;;;;;;;3725644;37;20165;-64
2021/03/25 04:44:07;;;;;;;;;17.75;15.00;;;;;;;;3725497;38;20193;-64
2021/03/25 04:46:48;;;;;;;;;19.50;16.00;;;;;;;;3725637;37;20147;-62
2021/03/25 04:49:29;;;;;;;;;17.25;15.50;;;;;;;;3725958;37;20159;-64
2021/03/25 04:51:59;;;;;;;;;20.50;14.25;;;;;;;;3725595;37;20142;-64
2021/03/25 04:54:36;;;;;;;;;21.00;16.25;;;;;;;;3725563;38;20140;-62
2021/03/25 04:57:11;;;;;;;;;22.00;19.00;;;;;;;;3725603;38;20118;-63
2021/03/25 04:59:38;;;;;;;;;14.00;13.00;;;;;;;;3725655;37;20144;-63
2021/03/25 05:02:06;;;;;;;;;15.50;14.50;;;;;;;;3725464;37;20367;-64
2021/03/25 05:04:34;;;;;;;;;17.75;16.00;;;;;;;;3725600;37;20126;-63
2021/03/25 05:07:01;;;;;;;;;19.75;19.25;;;;;;;;3725669;38;20098;-62
2021/03/25 05:09:28;;;;;;;;;19.00;17.25;;;;;;;;3725412;37;20132;-64
2021/03/25 05:11:53;;;;;;;;;16.75;16.25;;;;;;;;3725414;38;20115;-62
2021/03/25 05:14:21;;;;;;;;;18.75;17.00;;;;;;;;3725314;37;20095;-63
2021/03/25 05:17:01;;;;;;;;;26.75;21.50;;;;;;;;3725473;38;17751;-63
2021/03/25 05:20:00;;;;;;;;;30.75;26.75;;;;;;;;3724633;38;20105;-64
2021/03/25 05:22:51;;;;;;;;;20.25;14.00;;;;;;;;3725486;37;20365;-64
2021/03/25 05:25:45;;;;;;;;;32.75;22.75;;;;;;;;3725583;38;20093;-63
2021/03/25 05:28:15;;;;;;;;;20.50;19.25;;;;;;;;3726025;37;20115;-66
2021/03/25 05:30:42;;;;;;;;;18.50;17.50;;;;;;;;3725883;38;20101;-63
2021/03/25 05:33:10;;;;;;;;;29.50;27.00;;;;;;;;3725755;37;20092;-64
2021/03/25 05:35:45;;;;;;;;;30.25;27.25;;;;;;;;3725113;37;20091;-63
2021/03/25 05:38:11;;;;;;;;;21.25;21.00;;;;;;;;3725131;37;20115;-64
2021/03/25 05:40:39;;;;;;;;;24.00;19.25;;;;;;;;3725763;38;20086;-64
2021/03/25 05:43:33;;;;;;;;;31.50;24.25;;;;;;;;3726028;37;20091;-65
2021/03/25 05:46:22;;;;;;;;;25.25;22.50;;;;;;;;3725569;38;20082;-63
2021/03/25 05:48:56;;;;;;;;;29.00;24.00;;;;;;;;3725523;37;20095;-63
2021/03/25 05:51:42;;;;;;;;;28.25;23.25;;;;;;;;3725485;37;20061;-64
2021/03/25 05:54:25;;;;;;;;;24.00;20.75;;;;;;;;3725632;38;20106;-62
2021/03/25 05:57:11;;;;;;;;;24.25;22.75;;;;;;;;3725586;37;20119;-64
2021/03/25 05:59:52;;;;;;;;;37.25;25.25;;;;;;;;3725672;37;20044;-63
2021/03/25 06:02:38;;;;;;;;;21.00;16.25;;;;;;;;3725102;38;20111;-63
2021/03/25 06:05:04;;;;;;;;;28.75;24.00;;;;;;;;3725496;38;20032;-63
2021/03/25 06:07:56;;;;;;;;;24.00;21.00;;;;;;;;3725537;37;20059;-67
2021/03/25 06:10:40;;;;;;;;;30.00;23.25;;;;;;;;3725686;37;20045;-64
2021/03/25 06:13:19;;;;;;;;;28.50;24.50;;;;;;;;3725511;38;20059;-63
2021/03/25 06:16:12;;;;;;;;;29.00;25.25;;;;;;;;3725372;38;20027;-62
2021/03/25 06:19:07;;;;;;;;;24.00;22.50;;;;;;;;3725589;37;20044;-64
2021/03/25 06:21:50;;;;;;;;;25.00;23.25;;;;;;;;3725670;38;20021;-65
2021/03/25 06:24:35;;;;;;;;;26.75;23.00;;;;;;;;3729285;38;20052;-63
2021/03/25 06:27:16;;;;;;;;;25.75;20.25;;;;;;;;3726620;37;20076;-63
2021/03/25 06:29:48;;;;;;;;;24.50;21.75;;;;;;;;3725097;38;19998;-64
2021/03/25 06:32:16;;;;;;;;;22.25;21.25;;;;;;;;3725408;37;20021;-64
2021/03/25 06:35:00;;;;;;;;;23.50;21.50;;;;;;;;3725715;37;20001;-64
2021/03/25 06:37:49;;;;;;;;;21.50;18.00;;;;;;;;3725412;37;20037;-64
2021/03/25 06:40:36;;;;;;;;;30.00;23.00;;;;;;;;3725293;37;20001;-62
2021/03/25 06:43:27;;;;;;;;;23.50;22.00;;;;;;;;3725453;37;20009;-63
2021/03/25 06:46:04;;;;;;;;;22.25;16.75;;;;;;;;3725404;38;20255;-63
2021/03/25 06:48:42;;;;;;;;;21.75;17.75;;;;;;;;3725252;37;19974;-65
2021/03/25 06:51:19;;;;;;;;;20.75;20.00;;;;;;;;3725336;38;19982;-64
2021/03/25 06:53:46;;;;;;;;;18.75;17.00;;;;;;;;3725411;38;19967;-64
2021/03/25 06:56:17;;;;;;;;;25.50;22.50;;;;;;;;3726013;38;19976;-64
2021/03/25 06:58:47;;;;;;;;;26.50;20.00;;;;;;;;3725906;38;19978;-64
2021/03/25 07:01:29;;;;;;;;;25.00;22.00;;;;;;;;3725018;38;20251;-66
2021/03/25 07:03:56;;;;;;;;;19.75;15.75;;;;;;;;3725862;38;20242;-64
2021/03/25 07:06:25;;;;;;;;;25.75;21.50;;;;;;;;3730158;37;20212;-63
2021/03/25 07:08:52;;;;;;;;;25.75;22.25;;;;;;;;3727809;37;20235;-66
2021/03/25 07:11:19;;;;;;;;;20.00;17.00;;;;;;;;3725438;38;20209;-64
2021/03/25 07:13:59;;;;;;;;;31.75;24.50;;;;;;;;3725631;37;20219;-65
2021/03/25 07:16:26;;;;;;;;;28.50;23.25;;;;;;;;3725564;38;20202;-63
2021/03/25 07:19:13;;;;;;;;;19.75;14.00;;;;;;;;3725760;37;20203;-62
2021/03/25 07:21:43;;;;;;;;;28.50;23.00;;;;;;;;3725818;38;20178;-61
2021/03/25 07:24:27;;;;;;;;;30.00;25.50;;;;;;;;3725620;37;20209;-64
2021/03/25 07:27:03;;;;;;;;;23.00;22.00;;;;;;;;3725375;37;20189;-64
2021/03/25 07:29:33;;;;;;;;;22.25;18.50;;;;;;;;3725529;38;20195;-65
2021/03/25 07:32:25;;;;;;;;;27.00;21.25;;;;;;;;3725136;38;20188;-62
2021/03/25 07:34:51;;;;;;;;;24.50;20.25;;;;;;;;3725524;37;20177;-63
2021/03/25 07:37:32;;;;;;;;;25.00;21.50;;;;;;;;3725747;37;21169;-63
2021/03/25 07:40:04;;;;;;;;;29.00;26.00;;;;;;;;3725816;37;20182;-64
2021/03/25 07:42:32;;;;;;;;;22.75;17.75;;;;;;;;3725675;37;20173;-64
2021/03/25 07:45:18;;;;;;;;;30.25;27.50;;;;;;;;3725495;38;20175;-62
2021/03/25 07:47:45;;;;;;;;;28.75;24.00;;;;;;;;3728389;38;20188;-64
2021/03/25 07:50:21;;;;;;;;;28.25;24.00;;;;;;;;3731165;38;21172;-63
2021/03/25 07:52:48;;;;;;;;;19.50;17.00;;;;;;;;3727419;37;21160;-64
2021/03/25 07:55:24;;;;;;;;;21.25;17.50;;;;;;;;3727679;38;21148;-65
2021/03/25 07:57:51;;;;;;;;;22.00;20.50;;;;;;;;3732221;38;20177;-64
2021/03/25 08:00:19;;;;;;;;;22.00;20.75;;;;;;;;3727730;37;20899;-64
2021/03/25 08:02:46;;;;;;;;;33.25;25.00;;;;;;;;3725461;37;20873;-64
2021/03/25 08:05:30;;;;;;;;;25.00;20.75;;;;;;;;3725544;37;20938;-63
2021/03/25 08:07:58;;;;;;;;;25.75;22.00;;;;;;;;3725363;38;20900;-65
2021/03/25 08:10:43;;;;;;;;;22.75;21.25;;;;;;;;3725898;38;20890;-63
2021/03/25 08:13:19;;;;;;;;;20.50;18.75;;;;;;;;3727403;38;20892;-63
2021/03/25 08:15:46;;;;;;;;;15.50;13.50;;;;;;;;3731385;37;20861;-62
2021/03/25 08:18:19;;;;;;;;;19.25;16.50;;;;;;;;3726000;38;20853;-65
2021/03/25 08:20:51;;;;;;;;;10.25;10.25;;;;;;;;3725582;37;20844;-65
2021/03/25 08:23:35;;;;;;;;;17.50;15.75;;;;;;;;3725657;37;20795;-63
2021/03/25 08:26:05;;;;;;;;;17.75;15.00;;;;;;;;3725823;37;20886;-66
2021/03/25 08:28:43;;;;;;;;;21.25;16.75;;;;;;;;3725889;37;20847;-62
2021/03/25 08:31:49;;;;;;;;;27.00;20.75;;;;;;;;3726192;37;20863;-64
2021/03/25 08:34:29;;;;;;;;;10.50;10.50;;;;;;;;3726004;38;20884;-65
2021/03/25 08:37:14;;;;;;;;;17.25;17.25;;;;;;;;3726212;38;20816;-63
2021/03/25 08:39:59;;;;;;;;;12.75;12.75;;;;;;;;3726133;37;20836;-63
2021/03/25 08:42:38;;;;;;;;;21.75;16.75;;;;;;;;3725758;38;20860;-63
2021/03/25 08:45:27;;;;;;;;;17.00;15.25;;;;;;;;3725837;38;20837;-64
2021/03/25 08:48:10;;;;;;;;;15.75;14.25;;;;;;;;3725832;38;20813;-64
2021/03/25 08:50:42;;;;;;;;;14.00;13.50;;;;;;;;3725662;37;20840;-63
2021/03/25 08:53:18;;;;;;;;;14.25;12.00;;;;;;;;3725742;38;20832;-63
2021/03/25 08:55:46;;;;;;;;;18.75;16.75;;;;;;;;3725170;38;20813;-62
2021/03/25 08:58:22;;;;;;;;;16.00;15.50;;;;;;;;3726374;38;20822;-63
2021/03/25 09:00:49;;;;;;;;;22.25;18.00;;;;;;;;3725347;38;20813;-64
2021/03/25 09:03:19;;;;;;;;;17.25;13.75;;;;;;;;3725871;37;20825;-66
2021/03/25 09:05:57;;;;;;;;;14.25;14.25;;;;;;;;3725591;37;20789;-66
2021/03/25 09:08:24;;;;;;;;;17.75;15.00;;;;;;;;3725822;38;20754;-64
2021/03/25 09:10:58;;;;;;;;;19.25;14.75;;;;;;;;3725736;38;20787;-64
2021/03/25 09:13:26;;;;;;;;;15.75;14.75;;;;;;;;3725664;37;20795;-63
2021/03/25 09:15:54;;;;;;;;;4.75;3.25;;;;;;;;3725505;37;20781;-65
2021/03/25 09:18:22;;;;;;;;;17.50;15.75;;;;;;;;3725736;37;20740;-65
2021/03/25 09:20:50;;;;;;;;;14.50;12.75;;;;;;;;3725476;37;20770;-65
2021/03/25 09:23:50;;;;;;;;;15.75;13.25;;;;;;;;3725834;38;20762;-66
2021/03/25 09:26:36;;;;;;;;;14.25;13.00;;;;;;;;3726036;38;20777;-63
2021/03/25 09:29:07;;;;;;;;;19.00;16.00;;;;;;;;3725995;37;20788;-63
2021/03/25 09:31:37;;;;;;;;;13.75;10.00;;;;;;;;3725576;38;20789;-63
2021/03/25 09:34:38;;;;;;;;;12.25;9.50;;;;;;;;3725916;37;20762;-64
2021/03/25 09:37:32;;;;;;;;;13.50;13.25;;;;;;;;3725665;37;20752;-65
2021/03/25 09:40:27;;;;;;;;;14.25;10.25;;;;;;;;3725605;37;20735;-63
2021/03/25 09:43:19;;;;;;;;;10.00;8.25;;;;;;;;3725747;38;20722;-63
2021/03/25 09:45:44;;;;;;;;;10.00;8.00;;;;;;;;3725796;37;20704;-65
2021/03/25 09:48:20;;;;;;;;;11.50;10.75;;;;;;;;3726360;37;20684;-64
2021/03/25 09:51:03;;;;;;;;;9.50;9.50;;;;;;;;3726960;38;18384;-63
2021/03/25 09:53:43;;;;;;;;;8.75;7.75;;;;;;;;3727779;37;20708;-64
2021/03/25 09:56:32;;;;;;;;;9.25;7.75;;;;;;;;3725988;37;20676;-63
2021/03/25 09:58:59;;;;;;;;;8.50;5.50;;;;;;;;3725725;37;20683;-63
2021/03/25 10:01:59;;;;;;;;;8.25;7.50;;;;;;;;3725821;37;20692;-62
2021/03/25 10:04:41;;;;;;;;;14.00;11.75;;;;;;;;3729597;37;20684;-62
2021/03/25 10:07:30;;;;;;;;;2.75;1.75;;;;;;;;3726854;37;20706;-62
2021/03/25 10:09:58;;;;;;;;;9.50;8.00;;;;;;;;3725873;37;20659;-63
2021/03/25 10:12:42;;;;;;;;;11.00;9.00;;;;;;;;3725631;38;20653;-64
2021/03/25 10:15:42;;;;;;;;;10.50;10.00;;;;;;;;3725671;37;20687;-65
2021/03/25 10:18:12;;;;;;;;;6.00;6.00;;;;;;;;3725400;37;20701;-62
2021/03/25 10:20:49;;;;;;;;;6.50;5.00;;;;;;;;3725659;37;20653;-63
2021/03/25 10:23:33;;;;;;;;;4.25;4.00;;;;;;;;3725627;38;20649;-63
2021/03/25 10:26:21;;;;;;;;;5.00;4.00;;;;;;;;3726235;38;20657;-62
2021/03/25 10:28:57;;;;;;;;;5.00;5.00;;;;;;;;3725770;38;20645;-62
2021/03/25 10:31:27;;;;;;;;;8.00;7.00;;;;;;;;3725405;38;20628;-64
2021/03/25 10:33:55;;;;;;;;;2.25;1.75;;;;;;;;3725079;38;20651;-64
2021/03/25 10:36:24;;;;;;;;;4.75;4.75;;;;;;;;3725376;37;20646;-65
2021/03/25 10:39:14;;;;;;;;;5.25;4.50;;;;;;;;3725308;38;20637;-64
2021/03/25 10:41:40;;;;;;;;;4.75;4.75;;;;;;;;3725249;38;20654;-62
2021/03/25 10:44:19;;;;;;;;;5.25;5.00;;;;;;;;3725464;38;20640;-65
2021/03/25 10:46:46;;;;;;;;;5.25;4.75;;;;;;;;3725148;38;18297;-63
2021/03/25 10:49:20;;;;;;;;;5.25;4.00;;;;;;;;3725298;37;20638;-65
2021/03/25 10:51:50;;;;;;;;;6.00;5.25;;;;;;;;3727060;37;20713;-63
2021/03/25 10:54:29;;;;;;;;;5.00;5.00;;;;;;;;3726344;37;20607;-66
2021/03/25 10:56:57;;;;;;;;;4.00;3.50;;;;;;;;3728042;38;20592;-65
2021/03/25 10:59:24;;;;;;;;;5.75;5.00;;;;;;;;3726638;37;20630;-63
2021/03/25 11:01:59;;;;;;;;;5.75;5.75;;;;;;;;3725378;37;20600;-64
2021/03/25 11:04:27;;;;;;;;;4.50;4.00;;;;;;;;3725820;37;20597;-62
2021/03/25 11:06:53;;;;;;;;;3.75;3.00;;;;;;;;3725400;38;20614;-63
2021/03/25 11:09:29;;;;;;;;;4.50;4.00;;;;;;;;3725583;38;20602;-63
2021/03/25 11:12:01;;;;;;;;;6.00;5.00;;;;;;;;3727478;37;20594;-63
2021/03/25 11:14:36;;;;;;;;;5.25;4.75;;;;;;;;3729760;38;20594;-63
2021/03/25 11:17:40;;;;;;;;;3.25;3.25;;;;;;;;3726119;37;20579;-64
2021/03/25 11:20:11;;;;;;;;;5.00;3.75;;;;;;;;3734926;38;20575;-63
2021/03/25 11:22:38;;;;;;;;;6.75;6.00;;;;;;;;3731728;38;20564;-64
2021/03/25 11:25:05;;;;;;;;;6.75;5.50;;;;;;;;3725949;38;20580;-63
2021/03/25 11:27:31;;;;;;;;;4.75;4.25;;;;;;;;3725762;38;20652;-63
2021/03/25 11:30:01;;;;;;;;;5.00;5.00;;;;;;;;3725518;38;20583;-62
2021/03/25 11:32:44;;;;;;;;;5.00;4.50;;;;;;;;3725686;38;18316;-62
2021/03/25 11:35:24;;;;;;;;;5.00;4.00;;;;;;;;3725057;37;20557;-65
2021/03/25 11:37:51;;;;;;;;;1.00;1.00;;;;;;;;3725054;37;20665;-62
2021/03/25 11:40:26;;;;;;;;;3.75;3.75;;;;;;;;3725731;37;20561;-62
2021/03/25 11:43:06;;;;;;;;;4.00;4.00;;;;;;;;3725903;37;20559;-62
2021/03/25 11:45:45;;;;;;;;;5.00;5.00;;;;;;;;3725848;37;20532;-64
2021/03/25 11:48:18;;;;;;;;;6.00;6.00;;;;;;;;3726101;37;20547;-65
2021/03/25 11:50:46;;;;;;;;;6.00;5.00;;;;;;;;3725844;37;20537;-62
2021/03/25 11:53:28;;;;;;;;;5.00;5.00;;;;;;;;3727996;38;20550;-63
2021/03/25 11:55:54;;;;;;;;;6.00;5.50;;;;;;;;3728619;38;20519;-63
2021/03/25 11:58:21;;;;;;;;;4.50;4.50;;;;;;;;3725249;37;20543;-63
2021/03/25 12:01:06;;;;;;;;;6.50;6.50;;;;;;;;3725373;38;20534;-62
2021/03/25 12:03:34;;;;;;;;;2.25;1.50;;;;;;;;3725693;37;20644;-62
2021/03/25 12:05:59;;;;;;;;;9.00;6.00;;;;;;;;3725970;37;20492;-63
2021/03/25 12:08:28;;;;;;;;;8.00;6.25;;;;;;;;3726150;38;20531;-63
2021/03/25 12:10:58;;;;;;;;;6.75;5.75;;;;;;;;3725978;38;20507;-63
2021/03/25 12:13:24;;;;;;;;;5.00;4.00;;;;;;;;3725857;38;20513;-62
2021/03/25 12:15:51;;;;;;;;;4.00;4.00;;;;;;;;3726110;37;20514;-63
2021/03/25 12:18:23;;;;;;;;;6.50;5.50;;;;;;;;3726528;37;18191;-62
2021/03/25 12:20:50;;;;;;;;;8.25;8.00;;;;;;;;3726241;38;20518;-63
2021/03/25 12:23:18;;;;;;;;;3.00;2.25;;;;;;;;3726186;37;20497;-63
2021/03/25 12:25:44;;;;;;;;;6.50;6.00;;;;;;;;3726069;38;20497;-64
2021/03/25 12:28:10;;;;;;;;;5.25;4.50;;;;;;;;3725403;38;20498;-65
2021/03/25 12:30:38;;;;;;;;;4.25;3.25;;;;;;;;3725573;38;20507;-63
2021/03/25 12:33:08;;;;;;;;;7.00;6.00;;;;;;;;3725849;38;20482;-62
2021/03/25 12:35:33;;;;;;;;;4.75;4.25;;;;;;;;3725767;38;20495;-62
2021/03/25 12:38:01;;;;;;;;;3.00;3.00;;;;;;;;3725897;37;20554;-64
2021/03/25 12:40:26;;;;;;;;;5.75;5.25;;;;;;;;3726169;38;18153;-64
2021/03/25 12:42:53;;;;;;;;;6.00;6.00;;;;;;;;3725880;38;20480;-62
2021/03/25 12:45:35;;;;;;;;;5.75;5.50;;;;;;;;3726494;38;18132;-63
2021/03/25 12:48:08;;;;;;;;;7.00;6.00;;;;;;;;3726285;37;20453;-62
2021/03/25 12:50:34;;;;;;;;;5.00;4.75;;;;;;;;3727712;37;20465;-63
2021/03/25 12:53:00;;;;;;;;;4.00;3.75;;;;;;;;3727096;38;20477;-65
2021/03/25 12:55:26;;;;;;;;;4.00;4.00;;;;;;;;3728777;37;20446;-63
2021/03/25 12:57:54;;;;;;;;;6.75;5.50;;;;;;;;3726117;37;20456;-63
2021/03/25 13:00:23;;;;;;;;;6.00;5.00;;;;;;;;3725528;38;20764;-65
2021/03/25 13:02:48;;;;;;;;;8.00;8.00;;;;;;;;3726160;38;20430;-64
2021/03/25 13:05:17;;;;;;;;;5.50;4.50;;;;;;;;3726018;37;20432;-63
2021/03/25 13:07:42;;;;;;;;;11.00;9.00;;;;;;;;3726265;38;20444;-64
2021/03/25 13:10:09;;;;;;;;;6.50;5.25;;;;;;;;3725940;37;18100;-65
2021/03/25 13:12:35;;;;;;;;;6.50;5.75;;;;;;;;3725684;38;18126;-64
2021/03/25 13:15:02;;;;;;;;;6.00;5.25;;;;;;;;3725480;37;20437;-66
2021/03/25 13:17:27;;;;;;;;;6.00;6.00;;;;;;;;3725790;37;18099;-65
2021/03/25 13:19:54;;;;;;;;;3.00;2.50;;;;;;;;3725782;37;20404;-64
2021/03/25 13:22:19;;;;;;;;;5.00;5.00;;;;;;;;3725788;37;18100;-64
2021/03/25 13:24:46;;;;;;;;;7.25;6.00;;;;;;;;3727321;37;20401;-64
2021/03/25 13:27:12;;;;;;;;;7.00;4.75;;;;;;;;3727311;38;18108;-63
2021/03/25 13:29:39;;;;;;;;;5.25;5.25;;;;;;;;3726173;37;20391;-63
2021/03/25 13:32:05;;;;;;;;;5.25;4.25;;;;;;;;3725437;38;18076;-64
2021/03/25 13:34:31;;;;;;;;;3.50;3.00;;;;;;;;3725290;38;20403;-63
2021/03/25 13:36:57;;;;;;;;;5.25;4.00;;;;;;;;3725157;37;20387;-63
2021/03/25 13:39:24;;;;;;;;;4.00;4.00;;;;;;;;3725352;37;18075;-63
2021/03/25 13:41:54;;;;;;;;;5.25;5.25;;;;;;;;3725494;37;20381;-63
2021/03/25 13:44:20;;;;;;;;;4.75;3.75;;;;;;;;3727632;37;20387;-64
2021/03/25 13:46:46;;;;;;;;;4.00;4.00;;;;;;;;3727918;37;20389;-63
2021/03/25 13:49:13;;;;;;;;;0.75;0.00;;;;;;;;3725657;38;20392;-65
2021/03/25 13:51:39;;;;;;;;;5.00;5.00;;;;;;;;3725903;38;18048;-63
2021/03/25 13:54:05;;;;;;;;;5.75;4.75;;;;;;;;3725407;38;20364;-64
2021/03/25 13:56:31;;;;;;;;;6.00;6.00;;;;;;;;3725414;37;18067;-66
2021/03/25 13:58:57;;;;;;;;;5.25;5.00;;;;;;;;3725691;37;20372;-63
2021/03/25 14:01:23;;;;;;;;;6.00;4.75;;;;;;;;3726310;37;18033;-62
2021/03/25 14:03:49;;;;;;;;;2.50;2.25;;;;;;;;3725407;37;20364;-62
2021/03/25 14:06:14;;;;;;;;;5.25;5.00;;;;;;;;3725656;38;20398;-63
2021/03/25 14:08:40;;;;;;;;;5.00;4.25;;;;;;;;3725599;37;18023;-64
2021/03/25 14:11:06;;;;;;;;;4.00;4.00;;;;;;;;3725429;38;18028;-74
2021/03/25 14:13:32;;;;;;;;;5.00;5.00;;;;;;;;3726143;38;18033;-63
2021/03/25 14:15:58;;;;;;;;;5.25;5.25;;;;;;;;3731371;37;20360;-63
2021/03/25 14:18:26;;;;;;;;;5.00;5.00;;;;;;;;3733421;37;20347;-63
2021/03/25 14:20:54;;;;;;;;;3.75;2.50;;;;;;;;3726957;38;18029;-61
2021/03/25 14:23:22;;;;;;;;;6.50;5.00;;;;;;;;3725103;38;20524;-63
2021/03/25 14:25:48;;;;;;;;;5.50;4.25;;;;;;;;3725187;38;20350;-63
2021/03/25 14:28:16;;;;;;;;;6.75;5.75;;;;;;;;3726323;38;20333;-66
2021/03/25 14:30:46;;;;;;;;;4.00;4.00;;;;;;;;3736667;37;20335;-64
2021/03/25 14:33:12;;;;;;;;;7.00;5.00;;;;;;;;3736523;37;20412;-62
2021/03/25 14:35:42;;;;;;;;;4.50;3.50;;;;;;;;3728821;38;20325;-63
2021/03/25 14:38:09;;;;;;;;;4.75;4.50;;;;;;;;3733350;38;20325;-64
2021/03/25 14:40:36;;;;;;;;;6.00;5.00;;;;;;;;3732052;37;20337;-61
2021/03/25 14:43:02;;;;;;;;;2.00;2.00;;;;;;;;3728112;38;20285;-64
2021/03/25 14:45:28;;;;;;;;;5.25;5.00;;;;;;;;3728241;38;20330;-64
2021/03/25 14:47:54;;;;;;;;;6.25;6.00;;;;;;;;3729578;37;20278;-63
2021/03/25 14:50:21;;;;;;;;;6.00;5.00;;;;;;;;3729319;37;20274;-63
2021/03/25 14:52:47;;;;;;;;;9.00;7.00;;;;;;;;3726006;37;17949;-63
2021/03/25 14:55:13;;;;;;;;;6.50;6.50;;;;;;;;3725124;38;20269;-63
2021/03/25 14:57:39;;;;;;;;;3.75;3.00;;;;;;;;3725094;38;20279;-62
2021/03/25 15:00:09;;;;;;;;;4.00;4.00;;;;;;;;3725063;37;20386;-63